sensor_id;sensor_type;location;lat;lon;timestamp;P1;durP1;ratioP1;P2;durP2;ratioP2
18162;SDS011;9206;50.994;4.538;2023-02-28T00:01:52;5.63;;;5.27;;
18162;SDS011;9206;50.994;4.538;2023-02-28T00:04:47;6.03;;;5.50;;
18162;SDS011;9206;50.994;4.538;2023-02-28T00:07:52;7.47;;;6.13;;
18162;SDS011;9206;50.994;4.538;2023-02-28T00:10:40;6.07;;;5.60;;
18162;SDS011;9206;50.994;4.538;2023-02-28T00:13:27;5.53;;;5.03;;
18162;SDS011;9206;50.994;4.538;2023-02-28T00:16:21;7.37;;;5.67;;
18162;SDS011;9206;50.994;4.538;2023-02-28T00:19:10;6.30;;;5.80;;
18162;SDS011;9206;50.994;4.538;2023-02-28T00:22:15;7.87;;;5.37;;
18162;SDS011;9206;50.994;4.538;2023-02-28T00:25:06;6.73;;;5.87;;
18162;SDS011;9206;50.994;4.538;2023-02-28T00:27:57;6.27;;;5.50;;
18162;SDS011;9206;50.994;4.538;2023-02-28T00:31:01;6.20;;;5.60;;
18162;SDS011;9206;50.994;4.538;2023-02-28T00:33:48;8.60;;;6.00;;
18162;SDS011;9206;50.994;4.538;2023-02-28T00:36:37;6.70;;;6.10;;
18162;SDS011;9206;50.994;4.538;2023-02-28T00:39:27;6.53;;;6.03;;
18162;SDS011;9206;50.994;4.538;2023-02-28T00:42:20;7.27;;;6.40;;
18162;SDS011;9206;50.994;4.538;2023-02-28T00:45:10;6.50;;;5.90;;
18162;SDS011;9206;50.994;4.538;2023-02-28T00:47:57;7.20;;;6.60;;
18162;SDS011;9206;50.994;4.538;2023-02-28T00:50:48;7.80;;;7.00;;
18162;SDS011;9206;50.994;4.538;2023-02-28T00:53:41;7.53;;;6.77;;
18162;SDS011;9206;50.994;4.538;2023-02-28T00:56:30;7.53;;;6.03;;
18162;SDS011;9206;50.994;4.538;2023-02-28T00:59:17;6.70;;;6.13;;
18162;SDS011;9206;50.994;4.538;2023-02-28T01:02:10;8.77;;;7.63;;
18162;SDS011;9206;50.994;4.538;2023-02-28T01:07:55;8.10;;;7.40;;
18162;SDS011;9206;50.994;4.538;2023-02-28T01:10:48;11.70;;;7.30;;
18162;SDS011;9206;50.994;4.538;2023-02-28T01:16:33;7.67;;;6.47;;
18162;SDS011;9206;50.994;4.538;2023-02-28T01:19:26;7.20;;;6.50;;
18162;SDS011;9206;50.994;4.538;2023-02-28T01:22:14;7.10;;;6.37;;
18162;SDS011;9206;50.994;4.538;2023-02-28T01:25:01;7.80;;;7.00;;
18162;SDS011;9206;50.994;4.538;2023-02-28T01:27:51;7.10;;;6.53;;
18162;SDS011;9206;50.994;4.538;2023-02-28T01:30:46;7.63;;;6.93;;
18162;SDS011;9206;50.994;4.538;2023-02-28T01:33:34;8.07;;;7.37;;
18162;SDS011;9206;50.994;4.538;2023-02-28T01:36:25;7.30;;;6.70;;
18162;SDS011;9206;50.994;4.538;2023-02-28T01:39:14;9.13;;;7.60;;
18162;SDS011;9206;50.994;4.538;2023-02-28T01:42:02;9.83;;;7.37;;
18162;SDS011;9206;50.994;4.538;2023-02-28T01:45:03;7.90;;;6.90;;
18162;SDS011;9206;50.994;4.538;2023-02-28T01:48:05;8.23;;;7.50;;
18162;SDS011;9206;50.994;4.538;2023-02-28T01:51:02;10.30;;;7.43;;
18162;SDS011;9206;50.994;4.538;2023-02-28T01:53:59;8.53;;;7.80;;
18162;SDS011;9206;50.994;4.538;2023-02-28T01:56:50;8.13;;;7.47;;
18162;SDS011;9206;50.994;4.538;2023-02-28T02:10:03;9.70;;;8.03;;
18162;SDS011;9206;50.994;4.538;2023-02-28T02:12:57;9.30;;;8.40;;
18162;SDS011;9206;50.994;4.538;2023-02-28T02:15:55;9.50;;;7.57;;
18162;SDS011;9206;50.994;4.538;2023-02-28T02:19:05;11.63;;;8.23;;
18162;SDS011;9206;50.994;4.538;2023-02-28T02:31:48;11.30;;;8.17;;
18162;SDS011;9206;50.994;4.538;2023-02-28T02:35:13;16.90;;;8.63;;
18162;SDS011;9206;50.994;4.538;2023-02-28T02:38:06;8.83;;;7.97;;
18162;SDS011;9206;50.994;4.538;2023-02-28T02:40:59;10.23;;;8.60;;
18162;SDS011;9206;50.994;4.538;2023-02-28T02:43:57;8.70;;;8.00;;
18162;SDS011;9206;50.994;4.538;2023-02-28T02:46:50;9.27;;;8.40;;
18162;SDS011;9206;50.994;4.538;2023-02-28T02:49:42;9.13;;;8.33;;
18162;SDS011;9206;50.994;4.538;2023-02-28T02:55:32;9.47;;;8.23;;
18162;SDS011;9206;50.994;4.538;2023-02-28T02:58:26;9.13;;;8.27;;
18162;SDS011;9206;50.994;4.538;2023-02-28T03:01:20;10.13;;;8.70;;
18162;SDS011;9206;50.994;4.538;2023-02-28T03:04:16;9.53;;;8.60;;
18162;SDS011;9206;50.994;4.538;2023-02-28T03:07:05;8.97;;;8.07;;
18162;SDS011;9206;50.994;4.538;2023-02-28T03:09:55;12.03;;;8.63;;
18162;SDS011;9206;50.994;4.538;2023-02-28T03:12:45;10.50;;;8.87;;
18162;SDS011;9206;50.994;4.538;2023-02-28T03:18:40;8.47;;;7.67;;
18162;SDS011;9206;50.994;4.538;2023-02-28T03:21:38;11.63;;;8.77;;
18162;SDS011;9206;50.994;4.538;2023-02-28T03:24:31;9.10;;;8.47;;
18162;SDS011;9206;50.994;4.538;2023-02-28T03:27:30;10.20;;;9.20;;
18162;SDS011;9206;50.994;4.538;2023-02-28T03:30:25;13.30;;;8.83;;
18162;SDS011;9206;50.994;4.538;2023-02-28T03:33:24;10.50;;;9.30;;
18162;SDS011;9206;50.994;4.538;2023-02-28T03:36:18;9.27;;;8.40;;
18162;SDS011;9206;50.994;4.538;2023-02-28T03:39:08;9.40;;;8.60;;
18162;SDS011;9206;50.994;4.538;2023-02-28T03:42:00;9.60;;;8.43;;
18162;SDS011;9206;50.994;4.538;2023-02-28T03:48:00;11.53;;;8.37;;
18162;SDS011;9206;50.994;4.538;2023-02-28T03:50:53;9.83;;;8.83;;
18162;SDS011;9206;50.994;4.538;2023-02-28T03:56:45;9.07;;;8.20;;
18162;SDS011;9206;50.994;4.538;2023-02-28T03:59:39;8.80;;;7.90;;
18162;SDS011;9206;50.994;4.538;2023-02-28T04:02:35;9.63;;;8.73;;
18162;SDS011;9206;50.994;4.538;2023-02-28T04:05:24;9.73;;;8.57;;
18162;SDS011;9206;50.994;4.538;2023-02-28T04:08:19;8.17;;;7.53;;
18162;SDS011;9206;50.994;4.538;2023-02-28T04:11:08;12.60;;;8.60;;
18162;SDS011;9206;50.994;4.538;2023-02-28T04:14:05;11.73;;;8.80;;
18162;SDS011;9206;50.994;4.538;2023-02-28T04:16:59;8.90;;;8.17;;
18162;SDS011;9206;50.994;4.538;2023-02-28T04:22:45;8.40;;;7.47;;
18162;SDS011;9206;50.994;4.538;2023-02-28T04:25:34;11.83;;;8.73;;
18162;SDS011;9206;50.994;4.538;2023-02-28T04:28:21;9.70;;;8.90;;
18162;SDS011;9206;50.994;4.538;2023-02-28T04:31:21;9.47;;;8.53;;
18162;SDS011;9206;50.994;4.538;2023-02-28T04:34:14;13.50;;;9.23;;
18162;SDS011;9206;50.994;4.538;2023-02-28T04:37:04;11.13;;;8.67;;
18162;SDS011;9206;50.994;4.538;2023-02-28T04:39:52;10.33;;;8.47;;
18162;SDS011;9206;50.994;4.538;2023-02-28T04:42:40;12.33;;;9.23;;
18162;SDS011;9206;50.994;4.538;2023-02-28T04:45:29;8.53;;;7.80;;
18162;SDS011;9206;50.994;4.538;2023-02-28T04:48:18;12.80;;;9.17;;
18162;SDS011;9206;50.994;4.538;2023-02-28T04:51:09;9.50;;;8.50;;
18162;SDS011;9206;50.994;4.538;2023-02-28T04:54:00;8.60;;;7.90;;
18162;SDS011;9206;50.994;4.538;2023-02-28T04:56:51;9.43;;;8.53;;
18162;SDS011;9206;50.994;4.538;2023-02-28T04:59:38;10.37;;;8.43;;
18162;SDS011;9206;50.994;4.538;2023-02-28T05:02:26;8.80;;;8.00;;
18162;SDS011;9206;50.994;4.538;2023-02-28T05:05:15;8.90;;;8.07;;
18162;SDS011;9206;50.994;4.538;2023-02-28T05:08:09;9.47;;;8.47;;
18162;SDS011;9206;50.994;4.538;2023-02-28T05:14:13;9.10;;;7.93;;
18162;SDS011;9206;50.994;4.538;2023-02-28T05:17:03;11.23;;;7.83;;
18162;SDS011;9206;50.994;4.538;2023-02-28T05:19:52;10.33;;;8.43;;
18162;SDS011;9206;50.994;4.538;2023-02-28T05:22:45;8.57;;;7.87;;
18162;SDS011;9206;50.994;4.538;2023-02-28T05:25:33;9.30;;;8.50;;
18162;SDS011;9206;50.994;4.538;2023-02-28T05:28:20;9.57;;;8.77;;
18162;SDS011;9206;50.994;4.538;2023-02-28T05:31:09;9.80;;;7.93;;
18162;SDS011;9206;50.994;4.538;2023-02-28T05:34:03;12.07;;;8.63;;
18162;SDS011;9206;50.994;4.538;2023-02-28T05:36:51;11.63;;;9.23;;
18162;SDS011;9206;50.994;4.538;2023-02-28T05:39:40;9.67;;;8.77;;
18162;SDS011;9206;50.994;4.538;2023-02-28T05:42:33;12.90;;;8.40;;
18162;SDS011;9206;50.994;4.538;2023-02-28T05:45:21;9.67;;;7.60;;
18162;SDS011;9206;50.994;4.538;2023-02-28T05:48:09;11.67;;;8.00;;
18162;SDS011;9206;50.994;4.538;2023-02-28T05:51:03;9.60;;;7.40;;
18162;SDS011;9206;50.994;4.538;2023-02-28T05:53:54;10.87;;;8.20;;
18162;SDS011;9206;50.994;4.538;2023-02-28T05:56:47;10.30;;;7.97;;
18162;SDS011;9206;50.994;4.538;2023-02-28T05:59:36;8.53;;;7.77;;
18162;SDS011;9206;50.994;4.538;2023-02-28T06:02:31;8.00;;;7.30;;
18162;SDS011;9206;50.994;4.538;2023-02-28T06:05:20;8.53;;;7.73;;
18162;SDS011;9206;50.994;4.538;2023-02-28T06:08:09;9.00;;;7.33;;
18162;SDS011;9206;50.994;4.538;2023-02-28T06:10:56;10.03;;;7.80;;
18162;SDS011;9206;50.994;4.538;2023-02-28T06:13:44;8.40;;;7.70;;
18162;SDS011;9206;50.994;4.538;2023-02-28T06:16:37;9.07;;;7.47;;
18162;SDS011;9206;50.994;4.538;2023-02-28T06:19:30;7.50;;;6.90;;
18162;SDS011;9206;50.994;4.538;2023-02-28T06:22:20;10.97;;;7.40;;
18162;SDS011;9206;50.994;4.538;2023-02-28T06:25:09;7.80;;;7.00;;
18162;SDS011;9206;50.994;4.538;2023-02-28T06:28:00;10.17;;;7.83;;
18162;SDS011;9206;50.994;4.538;2023-02-28T06:30:49;8.63;;;7.53;;
18162;SDS011;9206;50.994;4.538;2023-02-28T06:33:54;9.90;;;7.63;;
18162;SDS011;9206;50.994;4.538;2023-02-28T06:36:55;8.60;;;7.40;;
18162;SDS011;9206;50.994;4.538;2023-02-28T06:40:11;8.03;;;7.37;;
18162;SDS011;9206;50.994;4.538;2023-02-28T06:43:34;10.40;;;7.17;;
18162;SDS011;9206;50.994;4.538;2023-02-28T06:52:05;8.17;;;7.47;;
18162;SDS011;9206;50.994;4.538;2023-02-28T06:54:56;9.03;;;8.17;;
18162;SDS011;9206;50.994;4.538;2023-02-28T06:57:47;9.13;;;8.33;;
18162;SDS011;9206;50.994;4.538;2023-02-28T07:00:41;9.33;;;6.90;;
18162;SDS011;9206;50.994;4.538;2023-02-28T07:03:35;7.90;;;7.20;;
18162;SDS011;9206;50.994;4.538;2023-02-28T07:06:24;10.67;;;7.40;;
18162;SDS011;9206;50.994;4.538;2023-02-28T07:09:18;7.60;;;7.03;;
18162;SDS011;9206;50.994;4.538;2023-02-28T07:12:06;10.43;;;7.97;;
18162;SDS011;9206;50.994;4.538;2023-02-28T07:14:55;9.20;;;7.13;;
18162;SDS011;9206;50.994;4.538;2023-02-28T07:17:42;7.50;;;6.80;;
18162;SDS011;9206;50.994;4.538;2023-02-28T07:20:31;7.30;;;6.80;;
18162;SDS011;9206;50.994;4.538;2023-02-28T07:23:24;6.97;;;6.50;;
18162;SDS011;9206;50.994;4.538;2023-02-28T07:26:15;10.90;;;7.57;;
18162;SDS011;9206;50.994;4.538;2023-02-28T07:29:21;8.07;;;7.30;;
18162;SDS011;9206;50.994;4.538;2023-02-28T07:32:13;8.10;;;7.03;;
18162;SDS011;9206;50.994;4.538;2023-02-28T07:35:07;11.33;;;6.63;;
18162;SDS011;9206;50.994;4.538;2023-02-28T07:40:47;7.47;;;6.40;;
18162;SDS011;9206;50.994;4.538;2023-02-28T07:43:41;7.50;;;6.50;;
18162;SDS011;9206;50.994;4.538;2023-02-28T07:46:35;6.97;;;6.37;;
18162;SDS011;9206;50.994;4.538;2023-02-28T07:49:30;7.17;;;6.40;;
18162;SDS011;9206;50.994;4.538;2023-02-28T07:52:24;6.63;;;6.10;;
18162;SDS011;9206;50.994;4.538;2023-02-28T07:55:16;6.40;;;5.93;;
18162;SDS011;9206;50.994;4.538;2023-02-28T07:58:04;7.73;;;6.47;;
18162;SDS011;9206;50.994;4.538;2023-02-28T08:01:04;6.73;;;5.90;;
18162;SDS011;9206;50.994;4.538;2023-02-28T08:03:54;6.57;;;5.93;;
18162;SDS011;9206;50.994;4.538;2023-02-28T08:06:49;5.90;;;5.40;;
18162;SDS011;9206;50.994;4.538;2023-02-28T08:09:43;6.77;;;6.07;;
18162;SDS011;9206;50.994;4.538;2023-02-28T08:12:43;5.40;;;5.00;;
18162;SDS011;9206;50.994;4.538;2023-02-28T08:15:31;5.10;;;4.63;;
18162;SDS011;9206;50.994;4.538;2023-02-28T08:21:15;6.00;;;5.40;;
18162;SDS011;9206;50.994;4.538;2023-02-28T08:24:05;4.77;;;4.17;;
18162;SDS011;9206;50.994;4.538;2023-02-28T08:26:54;4.73;;;4.33;;
18162;SDS011;9206;50.994;4.538;2023-02-28T08:29:41;4.87;;;4.47;;
18162;SDS011;9206;50.994;4.538;2023-02-28T08:35:25;4.77;;;3.90;;
18162;SDS011;9206;50.994;4.538;2023-02-28T08:38:13;4.10;;;3.80;;
18162;SDS011;9206;50.994;4.538;2023-02-28T08:41:03;3.53;;;3.33;;
18162;SDS011;9206;50.994;4.538;2023-02-28T08:51:03;3.33;;;3.13;;
18162;SDS011;9206;50.994;4.538;2023-02-28T08:53:52;3.60;;;3.40;;
18162;SDS011;9206;50.994;4.538;2023-02-28T08:56:41;3.27;;;3.03;;
18162;SDS011;9206;50.994;4.538;2023-02-28T08:59:30;3.87;;;3.67;;
18162;SDS011;9206;50.994;4.538;2023-02-28T09:02:24;3.40;;;3.07;;
18162;SDS011;9206;50.994;4.538;2023-02-28T09:08:08;2.90;;;2.70;;
18162;SDS011;9206;50.994;4.538;2023-02-28T09:11:01;3.00;;;2.80;;
18162;SDS011;9206;50.994;4.538;2023-02-28T09:13:53;3.03;;;2.13;;
18162;SDS011;9206;50.994;4.538;2023-02-28T09:16:50;2.60;;;2.50;;
18162;SDS011;9206;50.994;4.538;2023-02-28T09:19:38;2.30;;;2.10;;
18162;SDS011;9206;50.994;4.538;2023-02-28T09:22:31;2.80;;;2.50;;
18162;SDS011;9206;50.994;4.538;2023-02-28T09:25:19;2.70;;;2.50;;
18162;SDS011;9206;50.994;4.538;2023-02-28T09:28:08;2.70;;;2.50;;
18162;SDS011;9206;50.994;4.538;2023-02-28T09:30:59;2.33;;;2.23;;
18162;SDS011;9206;50.994;4.538;2023-02-28T09:33:52;2.60;;;2.03;;
18162;SDS011;9206;50.994;4.538;2023-02-28T09:36:41;2.13;;;2.03;;
18162;SDS011;9206;50.994;4.538;2023-02-28T09:39:30;2.43;;;2.30;;
18162;SDS011;9206;50.994;4.538;2023-02-28T09:42:21;2.90;;;2.70;;
18162;SDS011;9206;50.994;4.538;2023-02-28T09:45:18;2.50;;;2.20;;
18162;SDS011;9206;50.994;4.538;2023-02-28T09:51:05;2.20;;;2.10;;
18162;SDS011;9206;50.994;4.538;2023-02-28T09:54:09;5.00;;;2.17;;
18162;SDS011;9206;50.994;4.538;2023-02-28T09:57:10;2.50;;;2.40;;
18162;SDS011;9206;50.994;4.538;2023-02-28T10:00:07;2.57;;;2.27;;
18162;SDS011;9206;50.994;4.538;2023-02-28T10:03:18;3.03;;;2.87;;
18162;SDS011;9206;50.994;4.538;2023-02-28T10:06:19;5.13;;;2.20;;
18162;SDS011;9206;50.994;4.538;2023-02-28T10:09:08;2.60;;;2.40;;
18162;SDS011;9206;50.994;4.538;2023-02-28T10:12:03;2.00;;;1.90;;
18162;SDS011;9206;50.994;4.538;2023-02-28T10:14:55;2.00;;;1.83;;
18162;SDS011;9206;50.994;4.538;2023-02-28T10:17:47;1.80;;;1.70;;
18162;SDS011;9206;50.994;4.538;2023-02-28T10:23:34;1.90;;;1.80;;
18162;SDS011;9206;50.994;4.538;2023-02-28T10:26:29;2.20;;;1.93;;
18162;SDS011;9206;50.994;4.538;2023-02-28T10:29:24;1.83;;;1.73;;
18162;SDS011;9206;50.994;4.538;2023-02-28T10:32:16;1.87;;;1.77;;
18162;SDS011;9206;50.994;4.538;2023-02-28T10:35:14;1.80;;;1.70;;
18162;SDS011;9206;50.994;4.538;2023-02-28T10:38:08;1.60;;;1.50;;
18162;SDS011;9206;50.994;4.538;2023-02-28T10:41:03;1.87;;;1.77;;
18162;SDS011;9206;50.994;4.538;2023-02-28T10:44:08;2.03;;;1.93;;
18162;SDS011;9206;50.994;4.538;2023-02-28T10:47:01;1.70;;;1.60;;
18162;SDS011;9206;50.994;4.538;2023-02-28T10:49:50;2.03;;;1.93;;
18162;SDS011;9206;50.994;4.538;2023-02-28T10:52:44;2.40;;;2.20;;
18162;SDS011;9206;50.994;4.538;2023-02-28T10:55:34;2.70;;;2.10;;
18162;SDS011;9206;50.994;4.538;2023-02-28T10:58:24;2.13;;;1.87;;
18162;SDS011;9206;50.994;4.538;2023-02-28T11:01:16;3.27;;;1.87;;
18162;SDS011;9206;50.994;4.538;2023-02-28T11:04:16;2.47;;;2.27;;
18162;SDS011;9206;50.994;4.538;2023-02-28T11:07:06;2.20;;;2.10;;
18162;SDS011;9206;50.994;4.538;2023-02-28T11:10:04;2.40;;;2.30;;
18162;SDS011;9206;50.994;4.538;2023-02-28T11:12:55;2.07;;;1.97;;
18162;SDS011;9206;50.994;4.538;2023-02-28T11:15:51;2.20;;;2.10;;
18162;SDS011;9206;50.994;4.538;2023-02-28T11:21:36;2.60;;;2.40;;
18162;SDS011;9206;50.994;4.538;2023-02-28T11:24:31;2.13;;;2.03;;
18162;SDS011;9206;50.994;4.538;2023-02-28T11:27:40;2.13;;;2.03;;
18162;SDS011;9206;50.994;4.538;2023-02-28T11:30:36;2.00;;;1.90;;
18162;SDS011;9206;50.994;4.538;2023-02-28T11:33:31;2.03;;;1.93;;
18162;SDS011;9206;50.994;4.538;2023-02-28T11:36:25;2.03;;;1.90;;
18162;SDS011;9206;50.994;4.538;2023-02-28T11:39:18;1.90;;;1.80;;
18162;SDS011;9206;50.994;4.538;2023-02-28T11:42:24;2.00;;;1.90;;
18162;SDS011;9206;50.994;4.538;2023-02-28T11:45:45;1.83;;;1.73;;
18162;SDS011;9206;50.994;4.538;2023-02-28T11:48:46;4.40;;;2.20;;
18162;SDS011;9206;50.994;4.538;2023-02-28T11:51:47;2.53;;;2.00;;
18162;SDS011;9206;50.994;4.538;2023-02-28T11:54:45;1.90;;;1.80;;
18162;SDS011;9206;50.994;4.538;2023-02-28T11:57:49;2.00;;;1.90;;
18162;SDS011;9206;50.994;4.538;2023-02-28T12:04:03;2.17;;;2.07;;
18162;SDS011;9206;50.994;4.538;2023-02-28T12:07:00;2.13;;;1.77;;
18162;SDS011;9206;50.994;4.538;2023-02-28T12:09:56;2.07;;;1.97;;
18162;SDS011;9206;50.994;4.538;2023-02-28T12:12:56;2.13;;;1.93;;
18162;SDS011;9206;50.994;4.538;2023-02-28T12:19:19;4.20;;;1.73;;
18162;SDS011;9206;50.994;4.538;2023-02-28T12:22:21;2.23;;;2.13;;
18162;SDS011;9206;50.994;4.538;2023-02-28T12:25:28;2.23;;;2.13;;
18162;SDS011;9206;50.994;4.538;2023-02-28T12:28:48;2.03;;;1.93;;
18162;SDS011;9206;50.994;4.538;2023-02-28T12:31:47;2.00;;;1.90;;
18162;SDS011;9206;50.994;4.538;2023-02-28T12:34:47;2.10;;;2.00;;
18162;SDS011;9206;50.994;4.538;2023-02-28T12:37:40;2.07;;;2.00;;
18162;SDS011;9206;50.994;4.538;2023-02-28T12:40:43;1.93;;;1.83;;
18162;SDS011;9206;50.994;4.538;2023-02-28T12:43:37;1.70;;;1.70;;
18162;SDS011;9206;50.994;4.538;2023-02-28T12:46:37;2.00;;;1.90;;
18162;SDS011;9206;50.994;4.538;2023-02-28T12:49:30;2.23;;;2.13;;
18162;SDS011;9206;50.994;4.538;2023-02-28T12:52:28;2.23;;;2.13;;
18162;SDS011;9206;50.994;4.538;2023-02-28T12:55:31;2.00;;;1.90;;
18162;SDS011;9206;50.994;4.538;2023-02-28T12:58:33;2.30;;;2.17;;
18162;SDS011;9206;50.994;4.538;2023-02-28T13:01:39;2.73;;;2.03;;
18162;SDS011;9206;50.994;4.538;2023-02-28T13:04:43;2.50;;;2.20;;
18162;SDS011;9206;50.994;4.538;2023-02-28T13:10:48;2.30;;;2.10;;
18162;SDS011;9206;50.994;4.538;2023-02-28T13:13:41;4.33;;;2.10;;
18162;SDS011;9206;50.994;4.538;2023-02-28T13:19:57;2.50;;;2.40;;
18162;SDS011;9206;50.994;4.538;2023-02-28T13:22:52;2.50;;;2.40;;
18162;SDS011;9206;50.994;4.538;2023-02-28T13:25:50;2.97;;;2.10;;
18162;SDS011;9206;50.994;4.538;2023-02-28T13:38:33;2.20;;;2.10;;
18162;SDS011;9206;50.994;4.538;2023-02-28T13:54:41;2.93;;;2.60;;
18162;SDS011;9206;50.994;4.538;2023-02-28T13:57:47;2.20;;;2.10;;
18162;SDS011;9206;50.994;4.538;2023-02-28T14:01:06;2.47;;;2.27;;
18162;SDS011;9206;50.994;4.538;2023-02-28T14:07:38;2.60;;;2.50;;
18162;SDS011;9206;50.994;4.538;2023-02-28T14:10:33;2.50;;;2.40;;
18162;SDS011;9206;50.994;4.538;2023-02-28T14:13:39;3.00;;;2.80;;
18162;SDS011;9206;50.994;4.538;2023-02-28T14:16:36;2.63;;;2.53;;
18162;SDS011;9206;50.994;4.538;2023-02-28T14:19:28;2.80;;;2.63;;
18162;SDS011;9206;50.994;4.538;2023-02-28T14:22:38;2.70;;;2.50;;
18162;SDS011;9206;50.994;4.538;2023-02-28T14:25:48;2.77;;;2.67;;
18162;SDS011;9206;50.994;4.538;2023-02-28T14:28:53;2.70;;;2.50;;
18162;SDS011;9206;50.994;4.538;2023-02-28T14:32:11;2.70;;;2.60;;
18162;SDS011;9206;50.994;4.538;2023-02-28T14:35:05;3.10;;;2.90;;
18162;SDS011;9206;50.994;4.538;2023-02-28T14:38:14;2.60;;;2.40;;
18162;SDS011;9206;50.994;4.538;2023-02-28T14:41:12;2.60;;;2.50;;
18162;SDS011;9206;50.994;4.538;2023-02-28T14:44:14;2.93;;;2.63;;
18162;SDS011;9206;50.994;4.538;2023-02-28T14:47:03;2.83;;;2.60;;
18162;SDS011;9206;50.994;4.538;2023-02-28T14:49:55;3.10;;;2.90;;
18162;SDS011;9206;50.994;4.538;2023-02-28T14:52:51;2.57;;;2.43;;
18162;SDS011;9206;50.994;4.538;2023-02-28T14:55:43;4.07;;;3.77;;
18162;SDS011;9206;50.994;4.538;2023-02-28T14:58:36;3.43;;;2.80;;
18162;SDS011;9206;50.994;4.538;2023-02-28T15:01:28;2.73;;;2.63;;
18162;SDS011;9206;50.994;4.538;2023-02-28T15:04:21;4.93;;;3.00;;
18162;SDS011;9206;50.994;4.538;2023-02-28T15:07:14;3.60;;;2.60;;
18162;SDS011;9206;50.994;4.538;2023-02-28T15:10:12;3.00;;;2.80;;
18162;SDS011;9206;50.994;4.538;2023-02-28T15:13:05;3.90;;;2.90;;
18162;SDS011;9206;50.994;4.538;2023-02-28T15:16:00;2.90;;;2.70;;
18162;SDS011;9206;50.994;4.538;2023-02-28T15:21:48;3.53;;;2.73;;
18162;SDS011;9206;50.994;4.538;2023-02-28T15:24:39;3.13;;;2.93;;
18162;SDS011;9206;50.994;4.538;2023-02-28T15:27:32;3.90;;;2.77;;
18162;SDS011;9206;50.994;4.538;2023-02-28T15:30:26;3.10;;;2.90;;
18162;SDS011;9206;50.994;4.538;2023-02-28T15:36:36;3.07;;;2.87;;
18162;SDS011;9206;50.994;4.538;2023-02-28T15:39:41;2.77;;;2.67;;
18162;SDS011;9206;50.994;4.538;2023-02-28T15:42:31;3.23;;;3.03;;
18162;SDS011;9206;50.994;4.538;2023-02-28T15:45:32;2.70;;;2.50;;
18162;SDS011;9206;50.994;4.538;2023-02-28T15:48:27;3.10;;;2.80;;
18162;SDS011;9206;50.994;4.538;2023-02-28T15:51:16;2.90;;;2.70;;
18162;SDS011;9206;50.994;4.538;2023-02-28T15:54:10;4.13;;;3.00;;
18162;SDS011;9206;50.994;4.538;2023-02-28T15:57:07;3.07;;;2.87;;
18162;SDS011;9206;50.994;4.538;2023-02-28T16:00:09;2.70;;;2.60;;
18162;SDS011;9206;50.994;4.538;2023-02-28T16:09:34;3.70;;;2.67;;
18162;SDS011;9206;50.994;4.538;2023-02-28T16:12:41;4.60;;;2.93;;
18162;SDS011;9206;50.994;4.538;2023-02-28T16:16:05;4.33;;;2.67;;
18162;SDS011;9206;50.994;4.538;2023-02-28T16:18:58;7.37;;;2.80;;
18162;SDS011;9206;50.994;4.538;2023-02-28T16:22:01;3.83;;;2.97;;
18162;SDS011;9206;50.994;4.538;2023-02-28T16:25:00;3.00;;;2.80;;
18162;SDS011;9206;50.994;4.538;2023-02-28T16:27:52;3.77;;;3.47;;
18162;SDS011;9206;50.994;4.538;2023-02-28T16:30:52;2.90;;;2.70;;
18162;SDS011;9206;50.994;4.538;2023-02-28T16:33:46;2.80;;;2.60;;
18162;SDS011;9206;50.994;4.538;2023-02-28T16:36:40;3.13;;;2.70;;
18162;SDS011;9206;50.994;4.538;2023-02-28T16:39:27;3.00;;;2.80;;
18162;SDS011;9206;50.994;4.538;2023-02-28T16:42:20;3.10;;;2.90;;
18162;SDS011;9206;50.994;4.538;2023-02-28T16:45:21;3.43;;;3.23;;
18162;SDS011;9206;50.994;4.538;2023-02-28T16:48:12;2.67;;;2.57;;
18162;SDS011;9206;50.994;4.538;2023-02-28T16:53:51;3.93;;;3.63;;
18162;SDS011;9206;50.994;4.538;2023-02-28T16:56:39;5.10;;;3.53;;
18162;SDS011;9206;50.994;4.538;2023-02-28T16:59:34;5.30;;;3.40;;
18162;SDS011;9206;50.994;4.538;2023-02-28T17:02:27;7.47;;;3.60;;
18162;SDS011;9206;50.994;4.538;2023-02-28T17:05:15;3.77;;;3.30;;
18162;SDS011;9206;50.994;4.538;2023-02-28T17:08:04;5.57;;;3.70;;
18162;SDS011;9206;50.994;4.538;2023-02-28T17:11:04;3.53;;;3.30;;
18162;SDS011;9206;50.994;4.538;2023-02-28T17:13:51;3.80;;;3.20;;
18162;SDS011;9206;50.994;4.538;2023-02-28T17:16:43;3.77;;;3.57;;
18162;SDS011;9206;50.994;4.538;2023-02-28T17:19:33;4.00;;;3.60;;
18162;SDS011;9206;50.994;4.538;2023-02-28T17:22:24;3.73;;;3.53;;
18162;SDS011;9206;50.994;4.538;2023-02-28T17:25:12;7.10;;;4.57;;
18162;SDS011;9206;50.994;4.538;2023-02-28T17:28:01;4.70;;;4.30;;
18162;SDS011;9206;50.994;4.538;2023-02-28T17:30:52;9.43;;;4.00;;
18162;SDS011;9206;50.994;4.538;2023-02-28T17:33:42;4.97;;;4.57;;
18162;SDS011;9206;50.994;4.538;2023-02-28T17:36:35;4.50;;;4.20;;
18162;SDS011;9206;50.994;4.538;2023-02-28T17:39:29;5.20;;;3.73;;
18162;SDS011;9206;50.994;4.538;2023-02-28T17:42:22;6.23;;;4.53;;
18162;SDS011;9206;50.994;4.538;2023-02-28T17:45:24;5.20;;;4.53;;
18162;SDS011;9206;50.994;4.538;2023-02-28T17:48:11;12.50;;;6.47;;
18162;SDS011;9206;50.994;4.538;2023-02-28T17:51:01;5.93;;;5.30;;
18162;SDS011;9206;50.994;4.538;2023-02-28T17:53:48;8.70;;;6.40;;
18162;SDS011;9206;50.994;4.538;2023-02-28T17:56:36;10.67;;;5.63;;
18162;SDS011;9206;50.994;4.538;2023-02-28T17:59:28;7.23;;;5.73;;
18162;SDS011;9206;50.994;4.538;2023-02-28T18:02:30;6.63;;;6.00;;
18162;SDS011;9206;50.994;4.538;2023-02-28T18:05:25;5.83;;;5.43;;
18162;SDS011;9206;50.994;4.538;2023-02-28T18:08:19;6.53;;;5.80;;
18162;SDS011;9206;50.994;4.538;2023-02-28T18:11:23;5.13;;;4.73;;
18162;SDS011;9206;50.994;4.538;2023-02-28T18:14:14;5.50;;;5.00;;
18162;SDS011;9206;50.994;4.538;2023-02-28T18:17:02;7.40;;;5.30;;
18162;SDS011;9206;50.994;4.538;2023-02-28T18:22:46;4.90;;;4.50;;
18162;SDS011;9206;50.994;4.538;2023-02-28T18:25:35;6.30;;;4.73;;
18162;SDS011;9206;50.994;4.538;2023-02-28T18:28:30;4.93;;;4.63;;
18162;SDS011;9206;50.994;4.538;2023-02-28T18:31:20;5.20;;;4.70;;
18162;SDS011;9206;50.994;4.538;2023-02-28T18:34:13;6.87;;;5.90;;
18162;SDS011;9206;50.994;4.538;2023-02-28T18:37:20;6.93;;;5.80;;
18162;SDS011;9206;50.994;4.538;2023-02-28T18:40:10;7.37;;;6.70;;
18162;SDS011;9206;50.994;4.538;2023-02-28T18:43:04;6.90;;;6.30;;
18162;SDS011;9206;50.994;4.538;2023-02-28T18:45:52;7.67;;;6.17;;
18162;SDS011;9206;50.994;4.538;2023-02-28T18:51:36;6.27;;;5.77;;
18162;SDS011;9206;50.994;4.538;2023-02-28T18:54:23;7.07;;;6.47;;
18162;SDS011;9206;50.994;4.538;2023-02-28T18:57:11;8.20;;;6.90;;
18162;SDS011;9206;50.994;4.538;2023-02-28T19:00:02;17.33;;;7.53;;
18162;SDS011;9206;50.994;4.538;2023-02-28T19:02:54;8.20;;;7.27;;
18162;SDS011;9206;50.994;4.538;2023-02-28T19:05:43;7.80;;;7.10;;
18162;SDS011;9206;50.994;4.538;2023-02-28T19:08:30;9.53;;;7.07;;
18162;SDS011;9206;50.994;4.538;2023-02-28T19:14:14;7.60;;;6.90;;
18162;SDS011;9206;50.994;4.538;2023-02-28T19:17:03;7.90;;;7.17;;
18162;SDS011;9206;50.994;4.538;2023-02-28T19:19:50;11.90;;;6.67;;
18162;SDS011;9206;50.994;4.538;2023-02-28T19:22:37;8.23;;;7.50;;
18162;SDS011;9206;50.994;4.538;2023-02-28T19:25:26;7.80;;;7.10;;
18162;SDS011;9206;50.994;4.538;2023-02-28T19:28:19;7.20;;;6.70;;
18162;SDS011;9206;50.994;4.538;2023-02-28T19:31:13;8.40;;;7.70;;
18162;SDS011;9206;50.994;4.538;2023-02-28T19:34:03;7.53;;;6.90;;
18162;SDS011;9206;50.994;4.538;2023-02-28T19:36:54;8.20;;;7.27;;
18162;SDS011;9206;50.994;4.538;2023-02-28T19:42:48;6.93;;;6.33;;
18162;SDS011;9206;50.994;4.538;2023-02-28T19:45:35;7.20;;;6.60;;
18162;SDS011;9206;50.994;4.538;2023-02-28T19:48:31;7.13;;;6.53;;
18162;SDS011;9206;50.994;4.538;2023-02-28T19:51:20;6.83;;;6.23;;
18162;SDS011;9206;50.994;4.538;2023-02-28T19:54:08;7.00;;;6.40;;
18162;SDS011;9206;50.994;4.538;2023-02-28T19:56:55;7.50;;;6.80;;
18162;SDS011;9206;50.994;4.538;2023-02-28T19:59:45;7.50;;;6.87;;
18162;SDS011;9206;50.994;4.538;2023-02-28T20:02:32;8.97;;;7.00;;
18162;SDS011;9206;50.994;4.538;2023-02-28T20:05:28;9.70;;;7.60;;
18162;SDS011;9206;50.994;4.538;2023-02-28T20:08:19;8.17;;;7.50;;